»·PEaware :: N448RA KBFL-KVBG

N448RA :: KBFL-KVBG

FLIGHT INFORMATION

Flight Status: Arrived
Operator: Privately registered:
United States
More flights under this callsign
Pilot: Scott M. (16181)
Aircraft: Unknown
(KODI)
More flights by this aircraft type
Origin: KBFL Meadows
United States
Destination: KVBG Vandenberg AFB
United States
More flights between these airports :: More routes between these airports
Route:
File this flight plan on PilotEdge
Remarks:
Altitude:
(Current/Filed)
8,500ft
Speed:
(Current/Filed)
125kts
Departed: 05-Oct-17 04:32 PM
Arrived: 05-Oct-17 05:30 PM
Distance/Time
Traveled:
85nm/0:58
Distance/Time
To Go:
Arrived

Flight Plot

Page will automatically refresh every two minutes.

Flight plan parsing failed; only flown route is shown


Map Options




Map Legend


Flown Route
Filed Route
Departure Airport
Arrival Airport
Navaid (VOR, NDB)
Fix

Horizontal Profiles

Position Reports

Time Latitude Longitude Heading Altitude Ground
Speed
05-Oct-17 16:20 35.429383 -119.046103 226 511ft 0kts
05-Oct-17 16:21 35.429383 -119.046103 225 511ft 0kts
05-Oct-17 16:22 35.429383 -119.046103 226 511ft 0kts
05-Oct-17 16:23 35.429383 -119.046103 226 511ft 0kts
05-Oct-17 16:24 35.429382 -119.046103 226 511ft 0kts
05-Oct-17 16:25 35.429383 -119.046102 226 510ft 0kts
05-Oct-17 16:26 35.429383 -119.046102 226 510ft 0kts
05-Oct-17 16:27 35.429383 -119.046102 226 510ft 0kts
05-Oct-17 16:28 35.429383 -119.046102 226 510ft 0kts
05-Oct-17 16:29 35.429383 -119.046102 226 510ft 0kts
05-Oct-17 16:30 35.429383 -119.046102 226 510ft 0kts
05-Oct-17 16:31 35.429383 -119.046102 226 510ft 0kts
05-Oct-17 16:32 35.429228 -119.046276 223 510ft 9kts
05-Oct-17 16:33 35.426676 -119.045259 133 510ft 23kts
05-Oct-17 16:34 35.425741 -119.044758 219 510ft 0kts
05-Oct-17 16:35 35.425741 -119.044758 219 510ft 0kts
05-Oct-17 16:36 35.432315 -119.054409 319 717ft 109kts
05-Oct-17 16:37 35.445369 -119.076132 273 1542ft 130kts
05-Oct-17 16:38 35.429837 -119.097427 209 2169ft 141kts
05-Oct-17 16:39 35.408524 -119.117440 224 2784ft 146kts
05-Oct-17 16:40 35.390253 -119.144977 235 3424ft 154kts
05-Oct-17 16:41 35.374099 -119.175598 239 4059ft 150kts
05-Oct-17 16:42 35.360638 -119.203992 240 4704ft 137kts
05-Oct-17 16:43 35.348897 -119.229593 242 5333ft 136kts
05-Oct-17 16:44 35.337570 -119.254900 241 5958ft 139kts
05-Oct-17 16:45 35.325480 -119.281992 242 6608ft 142kts
05-Oct-17 16:46 35.313736 -119.308382 243 7227ft 144kts
05-Oct-17 16:47 35.302271 -119.334259 243 7830ft 146kts
05-Oct-17 16:48 35.291015 -119.359522 243 8408ft 146kts
05-Oct-17 16:49 35.279236 -119.386137 242 8501ft 170kts
05-Oct-17 16:50 35.268883 -119.409420 244 8483ft 160kts
05-Oct-17 16:51 35.255367 -119.439804 243 8484ft 147kts
05-Oct-17 16:52 35.244154 -119.465044 242 8487ft 142kts
05-Oct-17 16:53 35.233226 -119.489570 242 8489ft 141kts
05-Oct-17 16:54 35.222194 -119.514347 241 8490ft 140kts
05-Oct-17 16:55 35.211157 -119.539137 242 8491ft 139kts
05-Oct-17 16:56 35.197958 -119.568810 242 8490ft 139kts
05-Oct-17 16:57 35.186840 -119.593673 243 8495ft 144kts
05-Oct-17 16:58 35.176662 -119.616479 243 8494ft 151kts
05-Oct-17 16:59 35.163900 -119.644994 242 8492ft 154kts
05-Oct-17 17:00 35.151403 -119.672948 242 8490ft 155kts
05-Oct-17 17:01 35.138278 -119.702255 241 8487ft 152kts
05-Oct-17 17:02 35.126117 -119.729325 241 8489ft 149kts
05-Oct-17 17:03 35.114860 -119.754512 242 8488ft 146kts
05-Oct-17 17:04 35.103483 -119.779813 241 8492ft 146kts
05-Oct-17 17:05 35.091933 -119.805570 242 8490ft 147kts
05-Oct-17 17:06 35.080255 -119.831545 242 8490ft 147kts
05-Oct-17 17:07 35.067960 -119.858834 242 8490ft 148kts
05-Oct-17 17:08 35.055551 -119.886366 241 8489ft 148kts
05-Oct-17 17:09 35.042224 -119.916327 244 8488ft 148kts
05-Oct-17 17:10 35.030558 -119.942417 243 8488ft 148kts
05-Oct-17 17:11 35.018832 -119.968337 243 8489ft 147kts
05-Oct-17 17:12 35.006943 -119.994860 243 8488ft 148kts
05-Oct-17 17:13 34.995062 -120.021086 243 8173ft 152kts
05-Oct-17 17:14 34.982584 -120.048619 242 7571ft 148kts
05-Oct-17 17:15 34.970282 -120.075854 243 6952ft 144kts
05-Oct-17 17:16 34.958184 -120.102457 244 6531ft 134kts
05-Oct-17 17:17 34.946587 -120.128161 243 6549ft 139kts
05-Oct-17 17:18 34.934030 -120.155869 243 6167ft 151kts
05-Oct-17 17:19 34.921308 -120.183814 242 5560ft 143kts
05-Oct-17 17:20 34.910030 -120.208542 241 5002ft 140kts
05-Oct-17 17:21 34.896708 -120.237906 243 4535ft 135kts
05-Oct-17 17:22 34.882633 -120.268806 243 4541ft 133kts
05-Oct-17 17:23 34.866421 -120.304503 243 4541ft 135kts
05-Oct-17 17:24 34.849800 -120.340871 242 4216ft 134kts
05-Oct-17 17:25 34.833401 -120.376826 242 3766ft 131kts
05-Oct-17 17:26 34.816667 -120.413370 243 3321ft 133kts
05-Oct-17 17:27 34.800102 -120.449556 243 2859ft 128kts
05-Oct-17 17:28 34.783559 -120.485575 242 2388ft 125kts
05-Oct-17 17:29 34.771896 -120.521273 239 1984ft 115kts
05-Oct-17 17:30 34.746503 -120.536974 181 1474ft 108kts
05-Oct-17 17:31 34.723268 -120.530598 172 1246ft 94kts
05-Oct-17 17:32 34.708505 -120.550583 303 1089ft 85kts
05-Oct-17 17:33 34.724477 -120.569601 322 380ft 74kts
05-Oct-17 17:34 34.732909 -120.574019 46 374ft 31kts
05-Oct-17 17:35 34.733247 -120.570296 124 373ft 0kts

Navigation Log

Ident Type
Flight plan parsing failed, navigation log unavailable